Anuradhapura Air Force Base


Codes: VCCA/ACJ
Name: Anuradhapura Air Force Base
City: Anuradhapura
Country: Sri Lanka
Elevation: 324 ft.
Wikipedia:

Photos at Anuradhapura Air Force Base


   Photos courtesy of SpottingLog. You can add your own sightings and photos by signing up for a free trial today.



No photos found.

Weather at Anuradhapura Air Force Base


Time (UTC)DescriptionTempratureWindCloud coverageVisibilityPressureHumidity
21-Feb-2024 03:00Clear Sky26°C9 mph, E2%10000m1014hPa75%
21-Feb-2024 06:00Clear Sky28°C7 mph, E2%10000m1013hPa63%
21-Feb-2024 09:00Clear Sky32°C4 mph, NE2%10000m1010hPa44%
21-Feb-2024 12:00Clear Sky31°C9 mph, NE1%10000m1009hPa46%
21-Feb-2024 15:00Clear Sky23°C7 mph, E2%10000m1013hPa77%
21-Feb-2024 18:00Clear Sky22°C7 mph, E3%10000m1014hPa89%
21-Feb-2024 21:00Scattered Clouds22°C4 mph, SE29%10000m1011hPa91%
22-Feb-2024 00:00Few Clouds21°C2 mph, SE24%10000m1012hPa94%
22-Feb-2024 03:00Clear Sky26°C4 mph, SW9%10000m1014hPa78%
22-Feb-2024 06:00Scattered Clouds32°C7 mph, SW30%10000m1013hPa55%
22-Feb-2024 09:00Few Clouds35°C4 mph, SW12%10000m1009hPa42%
22-Feb-2024 12:00Light Rain30°C7 mph, W20%10000m1010hPa62%
22-Feb-2024 15:00Light Rain25°C2 mph, SW53%10000m1013hPa85%
22-Feb-2024 18:00Scattered Clouds23°C2 mph, S43%10000m1013hPa95%
22-Feb-2024 21:00Clear Sky23°C4 mph, S10%10000m1011hPa98%
23-Feb-2024 00:00Few Clouds22°C4 mph, S20%10000m1012hPa98%
23-Feb-2024 03:00Scattered Clouds27°C4 mph, SW35%10000m1014hPa83%
23-Feb-2024 06:00Few Clouds33°C2 mph, SW22%10000m1012hPa48%
23-Feb-2024 09:00Broken Clouds36°C4 mph, SE76%10000m1008hPa37%
23-Feb-2024 12:00Overcast Clouds32°C7 mph, NW87%10000m1009hPa54%
23-Feb-2024 15:00Light Rain26°C2 mph, SE77%10000m1012hPa81%
23-Feb-2024 18:00Broken Clouds24°C4 mph, SE77%10000m1013hPa90%
23-Feb-2024 21:00Overcast Clouds23°C4 mph, SE100%10000m1010hPa95%
24-Feb-2024 00:00Overcast Clouds22°C2 mph, S100%10000m1011hPa96%
24-Feb-2024 03:00Broken Clouds27°C4 mph, S71%10000m1013hPa79%
24-Feb-2024 06:00Broken Clouds34°C2 mph, SE63%10000m1012hPa51%
24-Feb-2024 09:00Light Rain32°C9 mph, NW100%10000m1008hPa53%
24-Feb-2024 12:00Light Rain26°C7 mph, NE83%10000m1010hPa81%
24-Feb-2024 15:00Light Rain24°C4 mph, E60%10000m1013hPa89%
24-Feb-2024 18:00Broken Clouds23°C4 mph, E72%10000m1013hPa92%
24-Feb-2024 21:00Few Clouds22°C4 mph, E24%10000m1010hPa95%
25-Feb-2024 00:00Few Clouds21°C7 mph, E15%10000m1010hPa96%
25-Feb-2024 03:00Clear Sky26°C9 mph, SE4%10000m1012hPa74%
25-Feb-2024 06:00Clear Sky33°C9 mph, E3%10000m1011hPa41%
25-Feb-2024 09:00Clear Sky36°C9 mph, E8%10000m1007hPa31%
25-Feb-2024 12:00Clear Sky30°C9 mph, E10%10000m1008hPa48%
25-Feb-2024 15:00Clear Sky24°C7 mph, NE9%10000m1011hPa80%
25-Feb-2024 18:00Clear Sky22°C7 mph, E8%10000m1012hPa94%
25-Feb-2024 21:00Few Clouds21°C7 mph, E17%10000m1010hPa96%
26-Feb-2024 00:00Few Clouds21°C7 mph, E15%10000m1010hPa96%